首页
METAR-TAF:

METAR-TAF

机场 :

布瓊布拉國際機場

布琼布拉, 布隆迪

纬度: 03-19S, 经度: 029-19E, 海拔: 782米

当前天气观测

该预报发布于1小时和37分钟前的15:00 UTC
风速24节,风向
温度 27°C
湿度 70%
气压 1010 hPa
能见度10公里或以上
少量云层高于2500英尺, 塔状积云.
多云层高于10000英尺

METAR: HBBA 211500Z 18024KT 9999 FEW025TCU BKN100 27/21 Q1010 NOSIG

时间: 18:37 (16:37 UTC)

预报

该预报发布于5小时和37分钟前的11:00 UTC
预报有效从21日的 12点(UTC)到 22日的 18点(UTC)
风速10节,风向,有时为25节阵风
能见度10公里或以上
少量云层高于2500英尺
少量云层高于2500英尺, 积雨云.
多云层高于10000英尺
散云层高于2500英尺, 积雨云.
多云层高于10000英尺
少量云层高于2500英尺
多云层高于10000英尺
少量云层高于2500英尺
少量云层高于2800英尺, 积雨云.
多云层高于10000英尺
雷暴, 雨, 阵雨
几率 30%
在之间 TE和MP点(UTC)
风速15节,风向,有时为25节阵风
能見度: 5000
散云层高于2500英尺, 积雨云.
多云层高于10000英尺
雷暴, 雨, 阵雨

TAF: HBBA 211100Z 2112/2218 18010G25KT 9999 FEW025 FEW025CB BKN100 TEMPO2112/2119 08015G30KT 5000 TSRA OR SHRA SCT025CB BKN100 BECMG2119 /2121 00000KT CAVOK BECMG2202/2204 36002KT 9999 FEW025 BKN100 BECMG2207/2209 18010G25KT 9999 FEW025 FEW028CB BKN100 PROB30 TEMPO2212/2218 08015G25KT 5000 TSRA OR SHRA SCT025CB BKN100

超过4000个机场的气象观测和天气预报(METAR&TAF报告)。

可查询的气象台以黄色和红色小点在地图上表示。

将鼠标移到小点上方,可查看气象台名称。

然后点击查看天气观测和预报。

如需切换地图:点击带黑十字的绿色按钮放大地图;点击带横线的绿色按钮缩小地图;或者点击绿色箭头查看邻近地区的地图。


METAR-TAF: